sensor_id;sensor_type;location;lat;lon;timestamp;temperature;humidity
33831;DHT22;20137;48.834;8.732;2023-02-01T00:01:43;3.20;99.90
33831;DHT22;20137;48.834;8.732;2023-02-01T00:04:09;3.20;99.90
33831;DHT22;20137;48.834;8.732;2023-02-01T00:06:35;3.30;99.90
33831;DHT22;20137;48.834;8.732;2023-02-01T00:09:01;3.30;99.90
33831;DHT22;20137;48.834;8.732;2023-02-01T00:11:27;3.30;99.90
33831;DHT22;20137;48.834;8.732;2023-02-01T00:13:53;3.30;99.90
33831;DHT22;20137;48.834;8.732;2023-02-01T00:16:21;3.40;99.90
33831;DHT22;20137;48.834;8.732;2023-02-01T00:18:50;3.30;99.90
33831;DHT22;20137;48.834;8.732;2023-02-01T00:21:19;3.30;99.90
33831;DHT22;20137;48.834;8.732;2023-02-01T00:23:44;3.30;99.90
33831;DHT22;20137;48.834;8.732;2023-02-01T00:26:16;3.30;99.90
33831;DHT22;20137;48.834;8.732;2023-02-01T00:28:42;3.30;99.90
33831;DHT22;20137;48.834;8.732;2023-02-01T00:31:07;3.30;99.90
33831;DHT22;20137;48.834;8.732;2023-02-01T00:33:33;3.30;99.90
33831;DHT22;20137;48.834;8.732;2023-02-01T00:36:06;3.40;99.90
33831;DHT22;20137;48.834;8.732;2023-02-01T00:38:34;3.30;99.90
33831;DHT22;20137;48.834;8.732;2023-02-01T00:41:11;3.40;99.90
33831;DHT22;20137;48.834;8.732;2023-02-01T00:43:37;3.40;99.90
33831;DHT22;20137;48.834;8.732;2023-02-01T00:46:03;3.40;99.90
33831;DHT22;20137;48.834;8.732;2023-02-01T00:48:29;3.40;99.90
33831;DHT22;20137;48.834;8.732;2023-02-01T00:51:03;3.50;99.90
33831;DHT22;20137;48.834;8.732;2023-02-01T00:53:30;3.40;99.90
33831;DHT22;20137;48.834;8.732;2023-02-01T00:55:56;3.40;99.90
33831;DHT22;20137;48.834;8.732;2023-02-01T00:58:22;3.50;99.90
33831;DHT22;20137;48.834;8.732;2023-02-01T01:03:29;3.50;99.90
33831;DHT22;20137;48.834;8.732;2023-02-01T01:05:59;3.40;99.90
33831;DHT22;20137;48.834;8.732;2023-02-01T01:08:25;3.40;99.90
33831;DHT22;20137;48.834;8.732;2023-02-01T01:10:51;3.40;99.90
33831;DHT22;20137;48.834;8.732;2023-02-01T01:13:16;3.50;99.90
33831;DHT22;20137;48.834;8.732;2023-02-01T01:15:42;3.50;99.90
33831;DHT22;20137;48.834;8.732;2023-02-01T01:18:08;3.50;99.90
33831;DHT22;20137;48.834;8.732;2023-02-01T01:20:35;3.40;99.90
33831;DHT22;20137;48.834;8.732;2023-02-01T01:23:01;3.40;99.90
33831;DHT22;20137;48.834;8.732;2023-02-01T01:25:27;3.50;99.90
33831;DHT22;20137;48.834;8.732;2023-02-01T01:27:52;3.50;99.90
33831;DHT22;20137;48.834;8.732;2023-02-01T01:30:18;3.50;99.90
33831;DHT22;20137;48.834;8.732;2023-02-01T01:32:44;3.50;99.90
33831;DHT22;20137;48.834;8.732;2023-02-01T01:35:10;3.50;99.90
33831;DHT22;20137;48.834;8.732;2023-02-01T01:37:36;3.50;99.90
33831;DHT22;20137;48.834;8.732;2023-02-01T01:40:04;3.50;99.90
33831;DHT22;20137;48.834;8.732;2023-02-01T01:42:30;3.50;99.90
33831;DHT22;20137;48.834;8.732;2023-02-01T01:45:16;3.50;99.90
33831;DHT22;20137;48.834;8.732;2023-02-01T01:47:47;3.50;99.90
33831;DHT22;20137;48.834;8.732;2023-02-01T01:50:17;3.50;99.90
33831;DHT22;20137;48.834;8.732;2023-02-01T01:52:44;3.50;99.90
33831;DHT22;20137;48.834;8.732;2023-02-01T01:55:13;3.50;99.90
33831;DHT22;20137;48.834;8.732;2023-02-01T01:57:42;3.60;99.90
33831;DHT22;20137;48.834;8.732;2023-02-01T02:00:11;3.50;99.90
33831;DHT22;20137;48.834;8.732;2023-02-01T02:02:38;3.60;99.90
33831;DHT22;20137;48.834;8.732;2023-02-01T02:05:05;3.50;99.90
33831;DHT22;20137;48.834;8.732;2023-02-01T02:07:36;3.60;99.90
33831;DHT22;20137;48.834;8.732;2023-02-01T02:10:09;3.60;99.90
33831;DHT22;20137;48.834;8.732;2023-02-01T02:12:42;3.60;99.90
33831;DHT22;20137;48.834;8.732;2023-02-01T02:15:09;3.50;99.90
33831;DHT22;20137;48.834;8.732;2023-02-01T02:23:22;3.70;99.90
33831;DHT22;20137;48.834;8.732;2023-02-01T02:31:40;3.50;99.90
33831;DHT22;20137;48.834;8.732;2023-02-01T02:42:36;3.50;99.90
33831;DHT22;20137;48.834;8.732;2023-02-01T02:48:35;3.60;99.90
33831;DHT22;20137;48.834;8.732;2023-02-01T02:54:21;3.60;99.90
33831;DHT22;20137;48.834;8.732;2023-02-01T02:57:10;3.60;99.90
33831;DHT22;20137;48.834;8.732;2023-02-01T03:00:17;3.60;99.90
33831;DHT22;20137;48.834;8.732;2023-02-01T03:03:02;3.60;99.90
33831;DHT22;20137;48.834;8.732;2023-02-01T03:05:48;3.60;99.90
33831;DHT22;20137;48.834;8.732;2023-02-01T03:08:23;3.60;99.90
33831;DHT22;20137;48.834;8.732;2023-02-01T03:13:44;3.60;99.90
33831;DHT22;20137;48.834;8.732;2023-02-01T03:21:37;3.60;99.90
33831;DHT22;20137;48.834;8.732;2023-02-01T03:24:11;3.60;99.90
33831;DHT22;20137;48.834;8.732;2023-02-01T03:26:42;3.70;99.90
33831;DHT22;20137;48.834;8.732;2023-02-01T03:29:14;3.60;99.90
33831;DHT22;20137;48.834;8.732;2023-02-01T03:31:41;3.60;99.90
33831;DHT22;20137;48.834;8.732;2023-02-01T03:34:07;3.70;99.90
33831;DHT22;20137;48.834;8.732;2023-02-01T03:36:40;3.70;99.90
33831;DHT22;20137;48.834;8.732;2023-02-01T03:39:19;3.80;99.90
33831;DHT22;20137;48.834;8.732;2023-02-01T03:41:53;3.70;99.90
33831;DHT22;20137;48.834;8.732;2023-02-01T03:44:26;3.60;99.90
33831;DHT22;20137;48.834;8.732;2023-02-01T03:47:08;3.80;99.90
33831;DHT22;20137;48.834;8.732;2023-02-01T03:52:06;3.70;99.90
33831;DHT22;20137;48.834;8.732;2023-02-01T03:54:34;3.80;99.90
33831;DHT22;20137;48.834;8.732;2023-02-01T03:57:05;3.90;99.90
33831;DHT22;20137;48.834;8.732;2023-02-01T03:59:31;3.80;99.90
33831;DHT22;20137;48.834;8.732;2023-02-01T04:01:57;3.80;99.90
33831;DHT22;20137;48.834;8.732;2023-02-01T04:04:23;3.80;99.90
33831;DHT22;20137;48.834;8.732;2023-02-01T04:06:49;3.90;99.90
33831;DHT22;20137;48.834;8.732;2023-02-01T04:09:15;3.80;99.90
33831;DHT22;20137;48.834;8.732;2023-02-01T04:11:41;3.90;99.90
33831;DHT22;20137;48.834;8.732;2023-02-01T04:14:07;3.80;99.90
33831;DHT22;20137;48.834;8.732;2023-02-01T04:16:33;3.80;99.90
33831;DHT22;20137;48.834;8.732;2023-02-01T04:18:59;3.80;99.90
33831;DHT22;20137;48.834;8.732;2023-02-01T04:21:25;3.80;99.90
33831;DHT22;20137;48.834;8.732;2023-02-01T04:23:52;3.80;99.90
33831;DHT22;20137;48.834;8.732;2023-02-01T04:26:17;3.90;99.90
33831;DHT22;20137;48.834;8.732;2023-02-01T04:28:44;3.90;99.90
33831;DHT22;20137;48.834;8.732;2023-02-01T04:31:13;4.10;99.90
33831;DHT22;20137;48.834;8.732;2023-02-01T04:33:39;4.00;99.90
33831;DHT22;20137;48.834;8.732;2023-02-01T04:36:05;4.00;99.90
33831;DHT22;20137;48.834;8.732;2023-02-01T04:38:30;3.90;99.90
33831;DHT22;20137;48.834;8.732;2023-02-01T04:40:58;3.90;99.90
33831;DHT22;20137;48.834;8.732;2023-02-01T04:43:24;3.70;99.90
33831;DHT22;20137;48.834;8.732;2023-02-01T04:45:50;3.60;99.90
33831;DHT22;20137;48.834;8.732;2023-02-01T04:48:17;3.70;99.90
33831;DHT22;20137;48.834;8.732;2023-02-01T04:50:44;3.80;99.90
33831;DHT22;20137;48.834;8.732;2023-02-01T04:53:13;3.80;99.90
33831;DHT22;20137;48.834;8.732;2023-02-01T04:55:40;3.80;99.90
33831;DHT22;20137;48.834;8.732;2023-02-01T04:58:06;3.70;99.90
33831;DHT22;20137;48.834;8.732;2023-02-01T05:00:31;3.70;99.90
33831;DHT22;20137;48.834;8.732;2023-02-01T05:02:57;3.70;99.90
33831;DHT22;20137;48.834;8.732;2023-02-01T05:05:23;3.80;99.90
33831;DHT22;20137;48.834;8.732;2023-02-01T05:07:48;3.80;99.90
33831;DHT22;20137;48.834;8.732;2023-02-01T05:10:14;3.80;99.90
33831;DHT22;20137;48.834;8.732;2023-02-01T05:12:40;3.90;99.90
33831;DHT22;20137;48.834;8.732;2023-02-01T05:15:26;3.80;99.90
33831;DHT22;20137;48.834;8.732;2023-02-01T05:17:52;3.80;99.90
33831;DHT22;20137;48.834;8.732;2023-02-01T05:20:17;3.60;99.90
33831;DHT22;20137;48.834;8.732;2023-02-01T05:22:43;3.60;99.90
33831;DHT22;20137;48.834;8.732;2023-02-01T05:25:09;3.60;99.90
33831;DHT22;20137;48.834;8.732;2023-02-01T05:27:35;3.50;99.90
33831;DHT22;20137;48.834;8.732;2023-02-01T05:30:01;3.50;99.90
33831;DHT22;20137;48.834;8.732;2023-02-01T05:32:26;3.50;99.90
33831;DHT22;20137;48.834;8.732;2023-02-01T05:34:52;3.40;99.90
33831;DHT22;20137;48.834;8.732;2023-02-01T05:37:17;3.40;99.90
33831;DHT22;20137;48.834;8.732;2023-02-01T05:39:43;3.50;99.90
33831;DHT22;20137;48.834;8.732;2023-02-01T05:42:09;3.40;99.90
33831;DHT22;20137;48.834;8.732;2023-02-01T05:44:34;3.30;99.90
33831;DHT22;20137;48.834;8.732;2023-02-01T05:47:00;3.30;99.90
33831;DHT22;20137;48.834;8.732;2023-02-01T05:49:26;3.40;99.90
33831;DHT22;20137;48.834;8.732;2023-02-01T05:51:51;3.40;99.90
33831;DHT22;20137;48.834;8.732;2023-02-01T05:54:17;3.50;99.90
33831;DHT22;20137;48.834;8.732;2023-02-01T05:56:43;3.40;99.90
33831;DHT22;20137;48.834;8.732;2023-02-01T05:59:09;3.50;99.90
33831;DHT22;20137;48.834;8.732;2023-02-01T06:01:35;3.50;99.90
33831;DHT22;20137;48.834;8.732;2023-02-01T06:04:01;3.50;99.90
33831;DHT22;20137;48.834;8.732;2023-02-01T06:06:27;3.50;99.90
33831;DHT22;20137;48.834;8.732;2023-02-01T06:08:52;3.50;99.90
33831;DHT22;20137;48.834;8.732;2023-02-01T06:11:18;3.50;99.90
33831;DHT22;20137;48.834;8.732;2023-02-01T06:13:43;3.50;99.90
33831;DHT22;20137;48.834;8.732;2023-02-01T06:16:09;3.50;99.90
33831;DHT22;20137;48.834;8.732;2023-02-01T06:18:35;3.50;99.90
33831;DHT22;20137;48.834;8.732;2023-02-01T06:21:01;3.60;99.90
33831;DHT22;20137;48.834;8.732;2023-02-01T06:23:28;3.60;99.90
33831;DHT22;20137;48.834;8.732;2023-02-01T06:26:20;3.60;99.90
33831;DHT22;20137;48.834;8.732;2023-02-01T06:28:46;3.70;99.90
33831;DHT22;20137;48.834;8.732;2023-02-01T06:31:12;3.60;99.90
33831;DHT22;20137;48.834;8.732;2023-02-01T06:33:38;3.60;99.90
33831;DHT22;20137;48.834;8.732;2023-02-01T06:36:05;3.70;99.90
33831;DHT22;20137;48.834;8.732;2023-02-01T06:38:32;3.60;99.90
33831;DHT22;20137;48.834;8.732;2023-02-01T06:41:01;3.60;99.90
33831;DHT22;20137;48.834;8.732;2023-02-01T06:43:28;3.60;99.90
33831;DHT22;20137;48.834;8.732;2023-02-01T06:45:58;3.60;99.90
33831;DHT22;20137;48.834;8.732;2023-02-01T06:48:24;3.60;99.90
33831;DHT22;20137;48.834;8.732;2023-02-01T06:50:49;3.60;99.90
33831;DHT22;20137;48.834;8.732;2023-02-01T06:53:15;3.60;99.90
33831;DHT22;20137;48.834;8.732;2023-02-01T06:55:41;3.60;99.90
33831;DHT22;20137;48.834;8.732;2023-02-01T06:58:07;3.60;99.90
33831;DHT22;20137;48.834;8.732;2023-02-01T07:00:32;3.60;99.90
33831;DHT22;20137;48.834;8.732;2023-02-01T07:02:58;3.70;99.90
33831;DHT22;20137;48.834;8.732;2023-02-01T07:05:25;3.70;99.90
33831;DHT22;20137;48.834;8.732;2023-02-01T07:07:51;3.70;99.90
33831;DHT22;20137;48.834;8.732;2023-02-01T07:10:17;3.70;99.90
33831;DHT22;20137;48.834;8.732;2023-02-01T07:12:42;3.60;99.90
33831;DHT22;20137;48.834;8.732;2023-02-01T07:15:08;3.70;99.90
33831;DHT22;20137;48.834;8.732;2023-02-01T07:17:34;3.70;99.90
33831;DHT22;20137;48.834;8.732;2023-02-01T07:20:00;3.80;99.90
33831;DHT22;20137;48.834;8.732;2023-02-01T07:22:27;3.80;99.90
33831;DHT22;20137;48.834;8.732;2023-02-01T07:24:53;3.80;99.90
33831;DHT22;20137;48.834;8.732;2023-02-01T07:27:18;3.80;99.90
33831;DHT22;20137;48.834;8.732;2023-02-01T07:29:45;3.90;99.90
33831;DHT22;20137;48.834;8.732;2023-02-01T07:32:11;3.80;99.90
33831;DHT22;20137;48.834;8.732;2023-02-01T07:34:36;3.90;99.90
33831;DHT22;20137;48.834;8.732;2023-02-01T07:37:02;3.90;99.90
33831;DHT22;20137;48.834;8.732;2023-02-01T07:39:28;4.00;99.90
33831;DHT22;20137;48.834;8.732;2023-02-01T07:41:57;3.90;99.90
33831;DHT22;20137;48.834;8.732;2023-02-01T07:44:23;4.00;99.90
33831;DHT22;20137;48.834;8.732;2023-02-01T07:46:49;4.00;99.90
33831;DHT22;20137;48.834;8.732;2023-02-01T07:49:15;4.00;99.90
33831;DHT22;20137;48.834;8.732;2023-02-01T07:51:42;4.00;99.90
33831;DHT22;20137;48.834;8.732;2023-02-01T07:54:08;4.00;99.90
33831;DHT22;20137;48.834;8.732;2023-02-01T07:56:34;4.00;99.90
33831;DHT22;20137;48.834;8.732;2023-02-01T07:58:59;4.00;99.90
33831;DHT22;20137;48.834;8.732;2023-02-01T08:01:27;4.10;99.90
33831;DHT22;20137;48.834;8.732;2023-02-01T08:03:58;4.00;99.90
33831;DHT22;20137;48.834;8.732;2023-02-01T08:06:25;4.10;99.90
33831;DHT22;20137;48.834;8.732;2023-02-01T08:08:51;4.10;99.90
33831;DHT22;20137;48.834;8.732;2023-02-01T08:11:19;4.10;99.90
33831;DHT22;20137;48.834;8.732;2023-02-01T08:13:46;4.10;99.90
33831;DHT22;20137;48.834;8.732;2023-02-01T08:16:13;4.10;99.90
33831;DHT22;20137;48.834;8.732;2023-02-01T08:18:39;4.10;99.90
33831;DHT22;20137;48.834;8.732;2023-02-01T08:21:07;4.20;99.90
33831;DHT22;20137;48.834;8.732;2023-02-01T08:23:35;4.30;99.90
33831;DHT22;20137;48.834;8.732;2023-02-01T08:26:12;4.30;99.90
33831;DHT22;20137;48.834;8.732;2023-02-01T08:28:44;4.40;99.90
33831;DHT22;20137;48.834;8.732;2023-02-01T08:31:13;4.40;99.90
33831;DHT22;20137;48.834;8.732;2023-02-01T08:33:42;4.50;99.90
33831;DHT22;20137;48.834;8.732;2023-02-01T08:36:09;4.60;99.90
33831;DHT22;20137;48.834;8.732;2023-02-01T08:38:37;4.60;99.90
33831;DHT22;20137;48.834;8.732;2023-02-01T08:41:08;4.60;99.90
33831;DHT22;20137;48.834;8.732;2023-02-01T08:43:34;4.60;99.90
33831;DHT22;20137;48.834;8.732;2023-02-01T08:46:00;4.50;99.90
33831;DHT22;20137;48.834;8.732;2023-02-01T08:48:26;4.50;99.90
33831;DHT22;20137;48.834;8.732;2023-02-01T08:50:51;4.40;99.90
33831;DHT22;20137;48.834;8.732;2023-02-01T08:53:17;4.30;99.90
33831;DHT22;20137;48.834;8.732;2023-02-01T08:55:43;4.30;99.90
33831;DHT22;20137;48.834;8.732;2023-02-01T08:58:08;4.30;99.90
33831;DHT22;20137;48.834;8.732;2023-02-01T09:00:34;4.30;99.90
33831;DHT22;20137;48.834;8.732;2023-02-01T09:02:59;4.30;99.90
33831;DHT22;20137;48.834;8.732;2023-02-01T09:05:25;4.40;99.90
33831;DHT22;20137;48.834;8.732;2023-02-01T09:07:52;4.40;99.90
33831;DHT22;20137;48.834;8.732;2023-02-01T09:10:18;4.30;99.90
33831;DHT22;20137;48.834;8.732;2023-02-01T09:12:44;4.30;99.90
33831;DHT22;20137;48.834;8.732;2023-02-01T09:15:09;4.30;99.90
33831;DHT22;20137;48.834;8.732;2023-02-01T09:17:35;4.30;99.90
33831;DHT22;20137;48.834;8.732;2023-02-01T09:20:02;4.40;99.90
33831;DHT22;20137;48.834;8.732;2023-02-01T09:22:28;4.40;99.90
33831;DHT22;20137;48.834;8.732;2023-02-01T09:24:53;4.50;99.90
33831;DHT22;20137;48.834;8.732;2023-02-01T09:27:19;4.60;99.90
33831;DHT22;20137;48.834;8.732;2023-02-01T09:29:45;4.70;99.90
33831;DHT22;20137;48.834;8.732;2023-02-01T09:32:14;4.70;99.90
33831;DHT22;20137;48.834;8.732;2023-02-01T09:34:40;4.80;99.90
33831;DHT22;20137;48.834;8.732;2023-02-01T09:37:07;4.80;99.90
33831;DHT22;20137;48.834;8.732;2023-02-01T09:39:33;4.90;99.90
33831;DHT22;20137;48.834;8.732;2023-02-01T09:45:22;4.70;99.90
33831;DHT22;20137;48.834;8.732;2023-02-01T09:48:02;4.70;99.90
33831;DHT22;20137;48.834;8.732;2023-02-01T09:50:37;4.70;99.90
33831;DHT22;20137;48.834;8.732;2023-02-01T09:55:50;4.70;99.90
33831;DHT22;20137;48.834;8.732;2023-02-01T09:58:25;4.50;99.90
33831;DHT22;20137;48.834;8.732;2023-02-01T10:00:55;4.40;99.90
33831;DHT22;20137;48.834;8.732;2023-02-01T10:03:24;4.50;99.90
33831;DHT22;20137;48.834;8.732;2023-02-01T10:11:28;4.80;99.90
33831;DHT22;20137;48.834;8.732;2023-02-01T10:14:32;4.80;99.90
33831;DHT22;20137;48.834;8.732;2023-02-01T10:20:22;4.80;99.90
33831;DHT22;20137;48.834;8.732;2023-02-01T10:25:53;4.90;99.90
33831;DHT22;20137;48.834;8.732;2023-02-01T10:28:20;4.80;99.90
33831;DHT22;20137;48.834;8.732;2023-02-01T10:30:48;4.80;99.90
33831;DHT22;20137;48.834;8.732;2023-02-01T10:33:25;4.70;99.90
33831;DHT22;20137;48.834;8.732;2023-02-01T10:35:55;4.80;99.90
33831;DHT22;20137;48.834;8.732;2023-02-01T10:38:30;4.80;99.90
33831;DHT22;20137;48.834;8.732;2023-02-01T10:41:02;4.80;99.90
33831;DHT22;20137;48.834;8.732;2023-02-01T10:43:28;4.80;99.90
33831;DHT22;20137;48.834;8.732;2023-02-01T10:45:55;4.90;99.90
33831;DHT22;20137;48.834;8.732;2023-02-01T10:48:21;5.10;99.90
33831;DHT22;20137;48.834;8.732;2023-02-01T10:51:05;5.00;99.90
33831;DHT22;20137;48.834;8.732;2023-02-01T10:53:44;5.10;99.90
33831;DHT22;20137;48.834;8.732;2023-02-01T10:56:12;5.20;99.90
33831;DHT22;20137;48.834;8.732;2023-02-01T10:58:46;5.10;99.90
33831;DHT22;20137;48.834;8.732;2023-02-01T11:01:25;5.00;99.90
33831;DHT22;20137;48.834;8.732;2023-02-01T11:03:57;5.20;99.90
33831;DHT22;20137;48.834;8.732;2023-02-01T11:14:16;5.40;99.90
33831;DHT22;20137;48.834;8.732;2023-02-01T11:16:48;5.50;99.90
33831;DHT22;20137;48.834;8.732;2023-02-01T11:19:16;5.40;99.90
33831;DHT22;20137;48.834;8.732;2023-02-01T11:21:43;5.40;99.90
33831;DHT22;20137;48.834;8.732;2023-02-01T11:26:45;5.50;99.90
33831;DHT22;20137;48.834;8.732;2023-02-01T11:29:13;5.50;99.90
33831;DHT22;20137;48.834;8.732;2023-02-01T11:31:44;5.50;99.90
33831;DHT22;20137;48.834;8.732;2023-02-01T11:34:46;5.40;99.90
33831;DHT22;20137;48.834;8.732;2023-02-01T11:37:22;5.40;99.90
33831;DHT22;20137;48.834;8.732;2023-02-01T11:40:00;5.40;99.90
33831;DHT22;20137;48.834;8.732;2023-02-01T11:42:28;5.40;99.90
33831;DHT22;20137;48.834;8.732;2023-02-01T11:45:20;5.40;99.90
33831;DHT22;20137;48.834;8.732;2023-02-01T11:47:46;5.40;99.90
33831;DHT22;20137;48.834;8.732;2023-02-01T11:50:41;5.40;99.90
33831;DHT22;20137;48.834;8.732;2023-02-01T11:53:17;5.50;99.90
33831;DHT22;20137;48.834;8.732;2023-02-01T12:06:21;5.70;99.90
33831;DHT22;20137;48.834;8.732;2023-02-01T12:11:52;5.30;99.90
33831;DHT22;20137;48.834;8.732;2023-02-01T12:14:56;5.00;99.90
33831;DHT22;20137;48.834;8.732;2023-02-01T12:20:28;4.90;99.90
33831;DHT22;20137;48.834;8.732;2023-02-01T12:23:33;4.90;99.90
33831;DHT22;20137;48.834;8.732;2023-02-01T12:26:34;5.10;99.90
33831;DHT22;20137;48.834;8.732;2023-02-01T12:34:56;4.90;99.90
33831;DHT22;20137;48.834;8.732;2023-02-01T12:40:53;4.80;99.90
33831;DHT22;20137;48.834;8.732;2023-02-01T12:43:39;4.70;99.90
33831;DHT22;20137;48.834;8.732;2023-02-01T12:46:12;4.70;99.90
33831;DHT22;20137;48.834;8.732;2023-02-01T12:48:56;4.80;99.90
33831;DHT22;20137;48.834;8.732;2023-02-01T12:51:34;4.90;99.90
33831;DHT22;20137;48.834;8.732;2023-02-01T12:54:21;5.00;99.90
33831;DHT22;20137;48.834;8.732;2023-02-01T12:56:55;5.10;99.90
33831;DHT22;20137;48.834;8.732;2023-02-01T12:59:30;5.30;99.90
33831;DHT22;20137;48.834;8.732;2023-02-01T13:05:22;4.90;99.90
33831;DHT22;20137;48.834;8.732;2023-02-01T13:08:10;4.80;99.90
33831;DHT22;20137;48.834;8.732;2023-02-01T13:10:50;4.80;99.90
33831;DHT22;20137;48.834;8.732;2023-02-01T13:13:31;4.80;99.90
33831;DHT22;20137;48.834;8.732;2023-02-01T13:18:42;4.60;99.90
33831;DHT22;20137;48.834;8.732;2023-02-01T13:21:24;4.50;99.90
33831;DHT22;20137;48.834;8.732;2023-02-01T13:23:52;4.40;99.90
33831;DHT22;20137;48.834;8.732;2023-02-01T13:26:18;4.10;99.90
33831;DHT22;20137;48.834;8.732;2023-02-01T13:28:57;4.00;99.90
33831;DHT22;20137;48.834;8.732;2023-02-01T13:40:26;4.00;99.90
33831;DHT22;20137;48.834;8.732;2023-02-01T13:42:58;4.00;99.90
33831;DHT22;20137;48.834;8.732;2023-02-01T13:45:29;4.00;99.90
33831;DHT22;20137;48.834;8.732;2023-02-01T13:47:58;4.00;99.90
33831;DHT22;20137;48.834;8.732;2023-02-01T13:50:30;4.10;99.90
33831;DHT22;20137;48.834;8.732;2023-02-01T13:56:00;4.30;99.90
33831;DHT22;20137;48.834;8.732;2023-02-01T13:58:36;4.50;99.90
33831;DHT22;20137;48.834;8.732;2023-02-01T14:03:55;4.50;99.90
33831;DHT22;20137;48.834;8.732;2023-02-01T14:19:36;4.80;99.90
33831;DHT22;20137;48.834;8.732;2023-02-01T14:24:41;4.60;99.90
33831;DHT22;20137;48.834;8.732;2023-02-01T14:29:41;4.50;99.90
33831;DHT22;20137;48.834;8.732;2023-02-01T14:32:17;4.50;99.90
33831;DHT22;20137;48.834;8.732;2023-02-01T14:39:53;4.50;99.90
33831;DHT22;20137;48.834;8.732;2023-02-01T14:50:31;4.50;99.90
33831;DHT22;20137;48.834;8.732;2023-02-01T14:55:45;4.60;99.90
33831;DHT22;20137;48.834;8.732;2023-02-01T14:58:44;4.60;99.90
33831;DHT22;20137;48.834;8.732;2023-02-01T15:01:32;4.60;99.90
33831;DHT22;20137;48.834;8.732;2023-02-01T15:06:41;4.70;99.90
33831;DHT22;20137;48.834;8.732;2023-02-01T15:12:03;4.70;99.90
33831;DHT22;20137;48.834;8.732;2023-02-01T15:17:03;4.70;99.90
33831;DHT22;20137;48.834;8.732;2023-02-01T15:19:55;4.70;99.90
33831;DHT22;20137;48.834;8.732;2023-02-01T15:22:22;4.70;99.90
33831;DHT22;20137;48.834;8.732;2023-02-01T15:24:56;4.60;99.90
33831;DHT22;20137;48.834;8.732;2023-02-01T15:27:22;4.60;99.90
33831;DHT22;20137;48.834;8.732;2023-02-01T15:29:48;4.60;99.90
33831;DHT22;20137;48.834;8.732;2023-02-01T15:32:34;4.50;99.90
33831;DHT22;20137;48.834;8.732;2023-02-01T15:35:01;4.50;99.90
33831;DHT22;20137;48.834;8.732;2023-02-01T15:37:28;4.40;99.90
33831;DHT22;20137;48.834;8.732;2023-02-01T15:42:33;4.30;99.90
33831;DHT22;20137;48.834;8.732;2023-02-01T15:44:58;4.30;99.90
33831;DHT22;20137;48.834;8.732;2023-02-01T15:47:27;4.30;99.90
33831;DHT22;20137;48.834;8.732;2023-02-01T15:49:58;4.30;99.90
33831;DHT22;20137;48.834;8.732;2023-02-01T15:52:39;4.30;99.90
33831;DHT22;20137;48.834;8.732;2023-02-01T15:55:08;4.30;99.90
33831;DHT22;20137;48.834;8.732;2023-02-01T15:57:36;4.30;99.90
33831;DHT22;20137;48.834;8.732;2023-02-01T16:00:08;4.30;99.90
33831;DHT22;20137;48.834;8.732;2023-02-01T16:05:33;4.30;99.90
33831;DHT22;20137;48.834;8.732;2023-02-01T16:10:44;4.40;99.90
33831;DHT22;20137;48.834;8.732;2023-02-01T16:13:11;4.30;99.90
33831;DHT22;20137;48.834;8.732;2023-02-01T16:15:38;4.40;99.90
33831;DHT22;20137;48.834;8.732;2023-02-01T16:18:04;4.40;99.90
33831;DHT22;20137;48.834;8.732;2023-02-01T16:20:30;4.40;99.90
33831;DHT22;20137;48.834;8.732;2023-02-01T16:22:56;4.40;99.90
33831;DHT22;20137;48.834;8.732;2023-02-01T16:25:22;4.40;99.90
33831;DHT22;20137;48.834;8.732;2023-02-01T16:27:48;4.30;99.90
33831;DHT22;20137;48.834;8.732;2023-02-01T16:30:14;4.30;99.90
33831;DHT22;20137;48.834;8.732;2023-02-01T16:32:40;4.30;99.90
33831;DHT22;20137;48.834;8.732;2023-02-01T16:35:33;4.20;99.90
33831;DHT22;20137;48.834;8.732;2023-02-01T16:38:01;4.10;99.90
33831;DHT22;20137;48.834;8.732;2023-02-01T16:40:27;4.10;99.90
33831;DHT22;20137;48.834;8.732;2023-02-01T16:42:53;4.10;99.90
33831;DHT22;20137;48.834;8.732;2023-02-01T16:45:20;4.10;99.90
33831;DHT22;20137;48.834;8.732;2023-02-01T16:47:52;4.30;99.90
33831;DHT22;20137;48.834;8.732;2023-02-01T16:50:24;4.20;99.90
33831;DHT22;20137;48.834;8.732;2023-02-01T16:52:51;4.20;99.90
33831;DHT22;20137;48.834;8.732;2023-02-01T16:55:19;4.20;99.90
33831;DHT22;20137;48.834;8.732;2023-02-01T16:57:46;4.20;99.90
33831;DHT22;20137;48.834;8.732;2023-02-01T17:00:13;4.20;99.90
33831;DHT22;20137;48.834;8.732;2023-02-01T17:02:41;4.10;99.90
33831;DHT22;20137;48.834;8.732;2023-02-01T17:05:08;4.20;99.90
33831;DHT22;20137;48.834;8.732;2023-02-01T17:07:35;4.20;99.90
33831;DHT22;20137;48.834;8.732;2023-02-01T17:10:01;4.30;99.90
33831;DHT22;20137;48.834;8.732;2023-02-01T17:12:30;4.30;99.90
33831;DHT22;20137;48.834;8.732;2023-02-01T17:14:57;4.30;99.90
33831;DHT22;20137;48.834;8.732;2023-02-01T17:17:25;4.30;99.90
33831;DHT22;20137;48.834;8.732;2023-02-01T17:19:53;4.30;99.90
33831;DHT22;20137;48.834;8.732;2023-02-01T17:22:20;4.20;99.90
33831;DHT22;20137;48.834;8.732;2023-02-01T17:24:46;4.30;99.90
33831;DHT22;20137;48.834;8.732;2023-02-01T17:27:12;4.20;99.90
33831;DHT22;20137;48.834;8.732;2023-02-01T17:29:38;4.30;99.90
33831;DHT22;20137;48.834;8.732;2023-02-01T17:32:05;4.20;99.90
33831;DHT22;20137;48.834;8.732;2023-02-01T17:34:31;4.20;99.90
33831;DHT22;20137;48.834;8.732;2023-02-01T17:36:57;4.10;99.90
33831;DHT22;20137;48.834;8.732;2023-02-01T17:39:22;4.10;99.90
33831;DHT22;20137;48.834;8.732;2023-02-01T17:42:10;4.10;99.90
33831;DHT22;20137;48.834;8.732;2023-02-01T17:44:37;4.20;99.90
33831;DHT22;20137;48.834;8.732;2023-02-01T17:47:04;4.20;99.90
33831;DHT22;20137;48.834;8.732;2023-02-01T17:49:30;4.20;99.90
33831;DHT22;20137;48.834;8.732;2023-02-01T17:51:57;4.20;99.90
33831;DHT22;20137;48.834;8.732;2023-02-01T17:54:23;4.20;99.90
33831;DHT22;20137;48.834;8.732;2023-02-01T17:56:50;4.20;99.90
33831;DHT22;20137;48.834;8.732;2023-02-01T17:59:16;4.20;99.90
33831;DHT22;20137;48.834;8.732;2023-02-01T18:01:42;4.20;99.90
33831;DHT22;20137;48.834;8.732;2023-02-01T18:04:12;4.20;99.90
33831;DHT22;20137;48.834;8.732;2023-02-01T18:06:39;4.30;99.90
33831;DHT22;20137;48.834;8.732;2023-02-01T18:09:04;4.10;99.90
33831;DHT22;20137;48.834;8.732;2023-02-01T18:11:31;4.10;99.90
33831;DHT22;20137;48.834;8.732;2023-02-01T18:13:58;4.20;99.90
33831;DHT22;20137;48.834;8.732;2023-02-01T18:16:30;4.40;99.90
33831;DHT22;20137;48.834;8.732;2023-02-01T18:18:56;4.20;99.90
33831;DHT22;20137;48.834;8.732;2023-02-01T18:21:34;4.30;99.90
33831;DHT22;20137;48.834;8.732;2023-02-01T18:24:01;4.30;99.90
33831;DHT22;20137;48.834;8.732;2023-02-01T18:26:27;4.30;99.90
33831;DHT22;20137;48.834;8.732;2023-02-01T18:28:52;4.30;99.90
33831;DHT22;20137;48.834;8.732;2023-02-01T18:31:25;4.40;99.90
33831;DHT22;20137;48.834;8.732;2023-02-01T18:33:52;4.40;99.90
33831;DHT22;20137;48.834;8.732;2023-02-01T18:36:19;4.40;99.90
33831;DHT22;20137;48.834;8.732;2023-02-01T18:38:45;4.50;99.90
33831;DHT22;20137;48.834;8.732;2023-02-01T18:41:15;4.40;99.90
33831;DHT22;20137;48.834;8.732;2023-02-01T18:43:42;4.50;99.90
33831;DHT22;20137;48.834;8.732;2023-02-01T18:46:11;4.50;99.90